South Dos Palos, California
Current Conditions -  °F | °C
As of 6:53 PM on Friday 19 Dec 2014 (Local Time) from KMCE Reporting Station
Overcast Overcast  
Wind Chill: 12°   Ceiling: 9500
Heat Index: 12°   Visibility: 8mi
Dew Point: 10°   Wind: 6mph
Humidity: 86%   Direction: 70°ENE
Pressure: 30.17"   Gusts: NA
Location:  36.96°N, 120.65°W
Report Text: KMCE 200253Z AUTO 07005KT 8SM BKN095 OVC110 12/10 A3017 RMK AO2 RAE12 SLP218 P0000 60002 T01220100 55000
Loading
Personal Weather Stations






























Interactive Weather Map New forecast layout! Learn more

10-Day Weather Forecast

Advertisements
Track Severe Weather on mobile